createdAt,value
2023-05-08T00:01:42.275Z,20.35
2023-05-08T00:04:13.425Z,29.38
2023-05-08T00:06:43.134Z,48.47
2023-05-08T00:09:19.318Z,26.80
2023-05-08T00:11:53.061Z,19.73
2023-05-08T00:14:23.639Z,21.02
2023-05-08T00:17:00.033Z,23.17
2023-05-08T00:19:32.285Z,20.30
2023-05-08T00:22:04.145Z,22.52
2023-05-08T00:24:37.609Z,19.55
2023-05-08T00:27:08.953Z,22.75
2023-05-08T00:29:40.553Z,21.80
2023-05-08T00:32:10.784Z,38.47
2023-05-08T00:34:43.242Z,21.65
2023-05-08T00:37:21.718Z,22.73
2023-05-08T00:39:55.228Z,22.40
2023-05-08T00:42:28.743Z,23.85
2023-05-08T00:44:59.474Z,22.58
2023-05-08T00:47:30.046Z,25.48
2023-05-08T00:50:00.983Z,28.88
2023-05-08T00:52:34.796Z,29.55
2023-05-08T00:55:13.500Z,30.00
2023-05-08T00:57:43.795Z,31.25
2023-05-08T01:00:26.517Z,26.60
2023-05-08T01:02:57.192Z,29.70
2023-05-08T01:05:30.057Z,29.20
2023-05-08T01:07:59.210Z,30.38
2023-05-08T01:10:44.328Z,24.73
2023-05-08T01:13:28.122Z,25.90
2023-05-08T01:16:13.577Z,33.08
2023-05-08T01:18:59.834Z,43.42
2023-05-08T01:21:40.036Z,22.70
2023-05-08T01:24:53.773Z,22.10
2023-05-08T01:28:12.025Z,19.10
2023-05-08T01:31:11.952Z,23.10
2023-05-08T01:34:02.289Z,23.67
2023-05-08T01:36:42.400Z,28.63
2023-05-08T01:39:26.082Z,31.92
2023-05-08T01:42:04.242Z,32.25
2023-05-08T01:44:45.642Z,30.58
2023-05-08T01:47:18.310Z,28.75
2023-05-08T01:49:58.882Z,32.28
2023-05-08T01:52:36.772Z,25.98
2023-05-08T01:55:14.922Z,30.15
2023-05-08T01:57:49.099Z,36.03
2023-05-08T02:00:23.413Z,37.30
2023-05-08T02:03:00.729Z,42.13
2023-05-08T02:05:33.782Z,37.55
2023-05-08T02:08:11.860Z,36.53
2023-05-08T02:10:43.441Z,41.22
2023-05-08T02:13:19.320Z,34.25
2023-05-08T02:15:54.530Z,34.53
2023-05-08T02:18:27.100Z,37.08
2023-05-08T02:24:02.896Z,36.78
2023-05-08T02:26:39.960Z,39.42
2023-05-08T02:29:10.738Z,31.15
2023-05-08T02:31:43.623Z,33.10
2023-05-08T02:34:18.851Z,110.05
2023-05-08T02:36:56.323Z,68.55
2023-05-08T02:39:34.921Z,35.33
2023-05-08T02:42:05.405Z,36.35
2023-05-08T02:44:38.861Z,37.45
2023-05-08T02:47:23.122Z,36.75
2023-05-08T02:49:57.854Z,37.03
2023-05-08T02:52:34.631Z,36.70
2023-05-08T02:55:24.898Z,37.30
2023-05-08T02:58:12.948Z,39.78
2023-05-08T03:01:02.459Z,40.95
2023-05-08T03:03:41.323Z,38.83
2023-05-08T03:06:16.496Z,43.90
2023-05-08T03:08:54.687Z,45.15
2023-05-08T03:11:32.934Z,46.03
2023-05-08T03:14:09.894Z,40.20
2023-05-08T03:16:44.045Z,40.80
2023-05-08T03:19:23.482Z,39.45
2023-05-08T03:21:57.701Z,53.47
2023-05-08T03:24:34.667Z,71.25
2023-05-08T03:27:13.615Z,162.02
2023-05-08T03:29:45.894Z,125.68
2023-05-08T03:32:19.072Z,182.68
2023-05-08T03:34:52.780Z,192.93
2023-05-08T03:37:27.086Z,221.38
2023-05-08T03:40:01.223Z,298.20
2023-05-08T03:42:34.028Z,348.13
2023-05-08T03:45:10.253Z,308.48
2023-05-08T03:47:46.156Z,239.57
2023-05-08T03:50:24.988Z,239.10
2023-05-08T03:53:00.628Z,191.32
2023-05-08T03:55:45.027Z,174.60
2023-05-08T03:58:31.922Z,142.77
2023-05-08T04:01:13.817Z,161.57
2023-05-08T04:03:57.835Z,135.80
2023-05-08T04:06:50.395Z,116.63
2023-05-08T04:09:31.012Z,108.00
2023-05-08T04:12:12.788Z,109.90
2023-05-08T04:14:50.687Z,102.90
2023-05-08T04:17:52.348Z,103.93
2023-05-08T04:20:28.629Z,91.82
2023-05-08T04:23:02.530Z,79.50
2023-05-08T04:25:35.619Z,88.63
2023-05-08T04:28:11.673Z,70.70
2023-05-08T04:30:53.340Z,102.30
2023-05-08T04:33:25.996Z,74.07
2023-05-08T04:36:00.230Z,79.47
2023-05-08T04:38:38.027Z,60.78
2023-05-08T04:41:12.539Z,67.50
2023-05-08T04:43:47.936Z,50.15
2023-05-08T04:46:23.083Z,58.85
2023-05-08T04:51:23.880Z,63.80
2023-05-08T04:53:55.964Z,65.05
2023-05-08T04:56:29.537Z,87.38
2023-05-08T04:59:03.596Z,57.03
2023-05-08T05:01:41.366Z,78.90
2023-05-08T05:04:13.195Z,100.82
2023-05-08T05:06:54.854Z,62.78
2023-05-08T05:09:29.783Z,58.72
2023-05-08T05:12:00.691Z,55.20
2023-05-08T05:14:41.150Z,52.58
2023-05-08T05:17:12.358Z,53.70
2023-05-08T05:20:07.273Z,46.13
2023-05-08T05:22:39.544Z,45.78
2023-05-08T05:25:13.091Z,46.83
2023-05-08T05:30:30.381Z,41.72
2023-05-08T05:33:00.559Z,42.85
2023-05-08T05:35:41.390Z,47.90
2023-05-08T05:38:15.409Z,46.33
2023-05-08T05:40:47.438Z,49.80
2023-05-08T05:43:29.694Z,45.83
2023-05-08T05:46:14.202Z,40.72
2023-05-08T05:48:49.734Z,52.42
2023-05-08T05:51:25.183Z,46.67
2023-05-08T05:54:03.346Z,47.90
2023-05-08T05:56:43.965Z,44.67
2023-05-08T05:59:15.820Z,42.70
2023-05-08T06:02:11.989Z,43.40
2023-05-08T06:04:43.028Z,43.85
2023-05-08T06:07:12.027Z,43.92
2023-05-08T06:09:41.377Z,43.80
2023-05-08T06:12:24.936Z,41.53
2023-05-08T06:14:59.776Z,44.30
2023-05-08T06:17:32.539Z,41.85
2023-05-08T06:20:03.495Z,37.80
2023-05-08T06:22:46.092Z,41.55
2023-05-08T06:25:21.044Z,37.28
2023-05-08T06:27:50.218Z,36.37
2023-05-08T06:30:22.707Z,35.33
2023-05-08T06:32:58.187Z,35.05
2023-05-08T06:35:33.332Z,32.10
2023-05-08T06:38:17.109Z,35.70
2023-05-08T06:40:51.728Z,30.30
2023-05-08T06:46:38.507Z,30.02
2023-05-08T06:49:14.033Z,30.85
2023-05-08T06:51:45.043Z,27.77
2023-05-08T06:54:20.900Z,29.38
2023-05-08T06:56:50.085Z,29.27
2023-05-08T06:59:19.834Z,32.08
2023-05-08T07:01:51.972Z,30.02
2023-05-08T07:04:32.033Z,31.38
2023-05-08T07:07:03.467Z,30.65
2023-05-08T07:09:32.441Z,30.65
2023-05-08T07:12:03.672Z,30.38
2023-05-08T07:14:35.366Z,31.80
2023-05-08T07:17:10.879Z,30.40
2023-05-08T07:22:16.804Z,31.53
2023-05-08T07:24:46.861Z,36.35
2023-05-08T07:27:19.768Z,30.25
2023-05-08T07:29:50.092Z,31.77
2023-05-08T07:32:20.394Z,30.45
2023-05-08T07:34:51.884Z,31.10
2023-05-08T07:37:21.774Z,32.70
2023-05-08T07:39:51.802Z,35.60
2023-05-08T07:45:06.884Z,31.63
2023-05-08T07:47:40.941Z,34.25
2023-05-08T07:50:14.996Z,32.37
2023-05-08T07:52:54.739Z,30.30
2023-05-08T07:55:24.906Z,28.85
2023-05-08T07:57:56.237Z,29.13
2023-05-08T08:00:32.860Z,27.02
2023-05-08T08:03:04.230Z,28.02
2023-05-08T08:05:37.726Z,28.58
2023-05-08T08:08:09.756Z,27.42
2023-05-08T08:10:41.384Z,27.27
2023-05-08T08:13:15.973Z,27.60
2023-05-08T08:15:46.494Z,27.52
2023-05-08T08:18:24.196Z,27.70
2023-05-08T08:20:56.987Z,27.55
2023-05-08T08:23:30.325Z,29.13
2023-05-08T08:26:03.572Z,28.52
2023-05-08T08:28:34.195Z,30.75
2023-05-08T08:31:06.272Z,28.02
2023-05-08T08:33:42.314Z,26.83
2023-05-08T08:36:24.402Z,25.63
2023-05-08T08:38:56.900Z,25.25
2023-05-08T08:41:35.991Z,26.75
2023-05-08T08:44:08.499Z,24.45
2023-05-08T08:46:42.803Z,27.27
2023-05-08T08:49:19.421Z,26.42
2023-05-08T08:51:58.980Z,26.10
2023-05-08T08:54:33.216Z,26.10
2023-05-08T08:57:09.886Z,25.42
2023-05-08T08:59:45.942Z,24.73
2023-05-08T09:02:26.814Z,24.08
2023-05-08T09:04:56.919Z,23.55
2023-05-08T09:07:31.551Z,25.65
2023-05-08T09:10:05.150Z,23.30
2023-05-08T09:12:34.970Z,25.25
2023-05-08T09:15:06.047Z,24.80
2023-05-08T09:17:52.810Z,27.38
2023-05-08T09:20:24.195Z,26.40
2023-05-08T09:22:58.231Z,27.63
2023-05-08T09:25:30.437Z,29.35
2023-05-08T09:28:28.454Z,28.92
2023-05-08T09:31:00.166Z,28.75
2023-05-08T09:33:31.234Z,29.33
2023-05-08T09:36:04.420Z,31.67
2023-05-08T09:38:45.061Z,34.97
2023-05-08T09:41:16.428Z,34.22
2023-05-08T09:44:01.934Z,32.03
2023-05-08T09:46:34.910Z,32.97
2023-05-08T09:49:06.342Z,34.53
2023-05-08T09:51:39.840Z,38.55
2023-05-08T09:54:20.503Z,35.78
2023-05-08T09:56:51.554Z,33.47
2023-05-08T09:59:34.572Z,38.53
2023-05-08T10:02:16.680Z,38.78
2023-05-08T10:04:48.658Z,33.55
2023-05-08T10:07:31.151Z,38.90
2023-05-08T10:10:14.423Z,43.30
2023-05-08T10:12:46.101Z,36.72
2023-05-08T10:15:17.806Z,41.92
2023-05-08T10:17:59.806Z,41.92
2023-05-08T10:20:38.712Z,41.55
2023-05-08T10:23:19.342Z,46.40
2023-05-08T10:26:00.838Z,47.95
2023-05-08T10:28:39.676Z,45.60
2023-05-08T10:31:18.547Z,45.30
2023-05-08T10:33:56.026Z,44.92
2023-05-08T10:36:30.857Z,46.75
2023-05-08T10:39:04.829Z,47.22
2023-05-08T10:41:41.505Z,47.53
2023-05-08T10:44:18.097Z,56.55
2023-05-08T10:46:56.497Z,58.90
2023-05-08T10:49:39.156Z,58.65
2023-05-08T10:52:24.201Z,63.80
2023-05-08T10:55:19.868Z,77.43
2023-05-08T10:58:15.535Z,83.50
2023-05-08T11:01:17.052Z,99.47
2023-05-08T11:03:56.611Z,108.70
2023-05-08T11:07:01.925Z,114.70
2023-05-08T11:09:49.579Z,121.75
2023-05-08T11:12:25.441Z,123.07
2023-05-08T11:15:07.425Z,120.53
2023-05-08T11:17:47.639Z,120.43
2023-05-08T11:20:34.667Z,124.30
2023-05-08T11:23:24.843Z,117.38
2023-05-08T11:26:21.482Z,119.68
2023-05-08T11:29:05.013Z,113.75
2023-05-08T11:32:05.658Z,104.93
2023-05-08T11:34:55.011Z,103.20
2023-05-08T11:37:47.987Z,101.38
2023-05-08T11:41:24.467Z,98.20
2023-05-08T11:45:02.372Z,88.13
2023-05-08T11:48:04.577Z,89.25
2023-05-08T11:51:05.496Z,85.38
2023-05-08T11:54:00.509Z,82.90
2023-05-08T11:59:47.541Z,80.85
2023-05-08T12:02:39.337Z,81.53
2023-05-08T12:05:31.200Z,89.03
2023-05-08T12:08:11.147Z,83.95
2023-05-08T12:11:14.932Z,83.68
2023-05-08T12:14:13.439Z,80.72
2023-05-08T12:16:52.824Z,81.95
2023-05-08T12:19:41.452Z,76.50
2023-05-08T12:22:32.449Z,72.68
2023-05-08T12:25:29.650Z,70.50
2023-05-08T12:28:23.779Z,66.38
2023-05-08T12:30:56.340Z,62.53
2023-05-08T12:33:28.879Z,69.65
2023-05-08T12:36:00.742Z,74.28
2023-05-08T12:38:39.258Z,61.95
2023-05-08T12:41:11.418Z,59.35
2023-05-08T12:43:42.066Z,63.28
2023-05-08T12:46:19.112Z,57.30
2023-05-08T12:48:53.050Z,64.05
2023-05-08T12:51:22.203Z,60.13
2023-05-08T12:54:00.641Z,63.78
2023-05-08T12:56:31.295Z,66.72
2023-05-08T12:59:09.641Z,60.55
2023-05-08T13:01:39.991Z,63.20
2023-05-08T13:04:13.602Z,57.42
2023-05-08T13:06:56.239Z,68.75
2023-05-08T13:09:30.237Z,57.90
2023-05-08T13:12:02.759Z,55.50
2023-05-08T13:14:32.715Z,58.63
2023-05-08T13:17:04.004Z,57.78
2023-05-08T13:19:33.304Z,57.15
2023-05-08T13:22:04.655Z,56.55
2023-05-08T13:24:43.464Z,58.85
2023-05-08T13:27:15.968Z,52.08
2023-05-08T13:29:45.233Z,60.15
2023-05-08T13:32:29.522Z,54.70
2023-05-08T13:35:01.480Z,57.72
2023-05-08T13:37:35.048Z,55.55
2023-05-08T13:40:12.986Z,58.22
2023-05-08T13:42:48.724Z,54.10
2023-05-08T13:45:19.034Z,51.97
2023-05-08T13:47:53.487Z,57.50
2023-05-08T13:50:28.836Z,50.10
2023-05-08T13:55:58.140Z,42.85
2023-05-08T13:58:30.650Z,42.03
2023-05-08T14:01:25.101Z,38.00
2023-05-08T14:06:35.322Z,32.97
2023-05-08T14:09:05.353Z,42.85
2023-05-08T14:11:48.746Z,37.65
2023-05-08T14:14:19.218Z,36.95
2023-05-08T14:17:02.541Z,35.72
2023-05-08T14:19:40.878Z,35.95
2023-05-08T14:22:13.503Z,38.58
2023-05-08T14:24:46.133Z,38.85
2023-05-08T14:27:17.445Z,33.30
2023-05-08T14:29:49.608Z,31.40
2023-05-08T14:32:21.993Z,33.80
2023-05-08T14:34:51.172Z,35.30
2023-05-08T14:37:21.614Z,31.50
2023-05-08T14:39:54.263Z,34.67
2023-05-08T14:42:26.046Z,27.70
2023-05-08T14:44:56.551Z,31.77
2023-05-08T14:47:28.258Z,32.47
2023-05-08T14:50:00.193Z,30.27
2023-05-08T14:52:32.116Z,26.00
2023-05-08T14:55:03.476Z,29.83
2023-05-08T14:57:38.110Z,27.65
2023-05-08T15:00:13.560Z,27.80
2023-05-08T15:05:23.521Z,25.58
2023-05-08T15:07:54.453Z,31.38
2023-05-08T15:10:24.751Z,28.15
2023-05-08T15:12:57.801Z,29.27
2023-05-08T15:15:30.543Z,31.20
2023-05-08T15:18:04.048Z,26.95
2023-05-08T15:20:37.686Z,30.40
2023-05-08T15:23:08.895Z,28.38
2023-05-08T15:25:42.570Z,27.23
2023-05-08T15:28:16.310Z,28.90
2023-05-08T15:30:49.601Z,28.25
2023-05-08T15:33:18.823Z,31.05
2023-05-08T15:35:49.391Z,29.95
2023-05-08T15:38:19.104Z,29.80
2023-05-08T15:40:49.471Z,31.52
2023-05-08T15:43:22.036Z,30.38
2023-05-08T15:45:53.743Z,30.95
2023-05-08T15:48:25.528Z,30.42
2023-05-08T15:51:03.714Z,30.02
2023-05-08T15:53:36.674Z,43.22
2023-05-08T15:56:14.412Z,103.68
2023-05-08T15:58:47.208Z,70.95
2023-05-08T16:01:20.898Z,96.18
2023-05-08T16:03:53.375Z,836.42
2023-05-08T16:06:37.253Z,244.30
2023-05-08T16:09:15.317Z,110.25
2023-05-08T16:11:45.590Z,143.80
2023-05-08T16:14:17.476Z,216.30
2023-05-08T16:16:50.894Z,76.68
2023-05-08T16:19:25.113Z,78.60
2023-05-08T16:22:01.582Z,79.72
2023-05-08T16:24:36.409Z,77.20
2023-05-08T16:27:14.036Z,76.80
2023-05-08T16:29:48.639Z,98.63
2023-05-08T16:32:30.172Z,76.00
2023-05-08T16:35:01.487Z,67.32
2023-05-08T16:37:37.531Z,78.50
2023-05-08T16:40:11.333Z,152.85
2023-05-08T16:42:56.592Z,75.38
2023-05-08T16:45:37.452Z,64.88
2023-05-08T16:48:10.011Z,80.50
2023-05-08T16:50:40.695Z,126.80
2023-05-08T16:53:10.790Z,88.05
2023-05-08T16:55:42.182Z,77.60
2023-05-08T16:58:18.384Z,52.03
2023-05-08T17:00:51.422Z,54.85
2023-05-08T17:03:22.819Z,50.03
2023-05-08T17:06:00.534Z,51.97
2023-05-08T17:08:30.142Z,48.70
2023-05-08T17:11:01.308Z,49.25
2023-05-08T17:13:33.757Z,51.08
2023-05-08T17:16:05.194Z,46.72
2023-05-08T17:18:39.113Z,45.35
2023-05-08T17:21:09.322Z,47.63
2023-05-08T17:23:41.381Z,47.10
2023-05-08T17:26:16.891Z,47.63
2023-05-08T17:28:48.111Z,49.00
2023-05-08T17:31:21.960Z,48.75
2023-05-08T17:33:53.047Z,49.85
2023-05-08T17:36:23.253Z,52.80
2023-05-08T17:39:02.673Z,49.67
2023-05-08T17:41:43.257Z,48.65
2023-05-08T17:44:17.200Z,54.97
2023-05-08T17:46:49.545Z,53.70
2023-05-08T17:49:23.146Z,56.42
2023-05-08T17:51:57.807Z,50.22
2023-05-08T17:54:30.637Z,55.63
2023-05-08T17:57:03.715Z,55.95
2023-05-08T17:59:38.444Z,57.72
2023-05-08T18:02:09.499Z,55.97
2023-05-08T18:04:49.975Z,55.72
2023-05-08T18:07:21.608Z,58.15
2023-05-08T18:09:52.698Z,56.05
2023-05-08T18:12:24.626Z,62.78
2023-05-08T18:14:54.020Z,63.15
2023-05-08T18:17:25.295Z,57.15
2023-05-08T18:20:00.826Z,51.08
2023-05-08T18:22:35.016Z,63.50
2023-05-08T18:25:12.639Z,59.40
2023-05-08T18:27:46.300Z,59.90
2023-05-08T18:30:17.145Z,64.05
2023-05-08T18:32:50.967Z,58.78
2023-05-08T18:35:21.668Z,61.85
2023-05-08T18:37:55.850Z,61.53
2023-05-08T18:40:27.916Z,65.73
2023-05-08T18:42:59.205Z,62.53
2023-05-08T18:45:29.794Z,62.78
2023-05-08T18:48:15.634Z,65.97
2023-05-08T18:53:26.322Z,62.15
2023-05-08T18:56:01.506Z,65.22
2023-05-08T18:58:32.990Z,69.68
2023-05-08T19:01:09.354Z,65.15
2023-05-08T19:03:42.727Z,69.10
2023-05-08T19:06:16.982Z,67.35
2023-05-08T19:08:49.446Z,67.82
2023-05-08T19:11:25.544Z,70.93
2023-05-08T19:13:57.693Z,67.00
2023-05-08T19:16:35.079Z,71.97
2023-05-08T19:19:27.709Z,66.13
2023-05-08T19:22:03.488Z,69.93
2023-05-08T19:24:53.053Z,69.78
2023-05-08T19:27:39.644Z,66.72
2023-05-08T19:30:13.515Z,72.85
2023-05-08T19:32:54.859Z,69.00
2023-05-08T19:35:27.143Z,65.72
2023-05-08T19:38:05.231Z,68.47
2023-05-08T19:40:44.830Z,64.82
2023-05-08T19:43:26.977Z,68.30
2023-05-08T19:46:03.151Z,63.70
2023-05-08T19:48:41.223Z,62.13
2023-05-08T19:51:17.552Z,64.32
2023-05-08T19:53:49.750Z,66.03
2023-05-08T19:56:24.437Z,62.70
2023-05-08T19:58:54.320Z,62.50
2023-05-08T20:01:25.818Z,66.03
2023-05-08T20:04:00.763Z,69.47
2023-05-08T20:06:39.509Z,65.53
2023-05-08T20:09:12.502Z,62.45
2023-05-08T20:11:51.839Z,61.75
2023-05-08T20:14:24.725Z,64.07
2023-05-08T20:16:55.964Z,68.78
2023-05-08T20:19:31.730Z,73.80
2023-05-08T20:22:05.532Z,73.28
2023-05-08T20:24:39.134Z,70.78
2023-05-08T20:27:13.071Z,68.15
2023-05-08T20:29:48.724Z,63.58
2023-05-08T20:32:21.642Z,67.15
2023-05-08T20:34:54.684Z,62.92
2023-05-08T20:37:30.913Z,56.90
2023-05-08T20:40:04.137Z,65.18
2023-05-08T20:42:34.945Z,65.97
2023-05-08T20:45:09.353Z,59.30
2023-05-08T20:47:41.510Z,60.35
2023-05-08T20:50:14.645Z,59.92
2023-05-08T20:52:52.468Z,58.95
2023-05-08T20:55:26.888Z,69.05
2023-05-08T20:58:02.638Z,65.45
2023-05-08T21:00:34.608Z,63.88
2023-05-08T21:03:09.503Z,62.28
2023-05-08T21:05:40.482Z,62.30
2023-05-08T21:08:16.554Z,62.63
2023-05-08T21:10:48.880Z,65.65
2023-05-08T21:13:20.309Z,60.28
2023-05-08T21:15:51.987Z,63.10
2023-05-08T21:18:23.972Z,68.75
2023-05-08T21:20:56.645Z,58.65
2023-05-08T21:23:30.461Z,73.88
2023-05-08T21:26:00.178Z,70.22
2023-05-08T21:28:29.550Z,63.17
2023-05-08T21:30:58.681Z,68.90
2023-05-08T21:33:29.270Z,69.63
2023-05-08T21:36:01.651Z,66.82
2023-05-08T21:38:41.613Z,72.95
2023-05-08T21:41:12.162Z,69.75
2023-05-08T21:43:47.697Z,71.18
2023-05-08T21:46:18.860Z,67.55
2023-05-08T21:48:50.086Z,64.32
2023-05-08T21:51:24.811Z,74.10
2023-05-08T21:53:56.050Z,77.15
2023-05-08T21:56:28.182Z,85.38
2023-05-08T21:58:58.746Z,65.20
2023-05-08T22:01:31.863Z,75.90
2023-05-08T22:04:02.927Z,73.38
2023-05-08T22:06:43.214Z,87.18
2023-05-08T22:09:14.751Z,85.03
2023-05-08T22:11:44.733Z,90.93
2023-05-08T22:14:22.066Z,89.00
2023-05-08T22:16:53.402Z,82.60
2023-05-08T22:19:24.591Z,76.97
2023-05-08T22:21:53.800Z,69.22
2023-05-08T22:24:28.272Z,63.63
2023-05-08T22:27:01.157Z,71.87
2023-05-08T22:29:36.420Z,72.95
2023-05-08T22:32:09.540Z,75.07
2023-05-08T22:34:39.401Z,86.68
2023-05-08T22:37:10.543Z,95.50
2023-05-08T22:39:42.412Z,91.22
2023-05-08T22:42:14.210Z,86.05
2023-05-08T22:44:48.796Z,88.20
2023-05-08T22:47:20.288Z,96.18
2023-05-08T22:49:52.319Z,92.18
2023-05-08T22:52:23.744Z,91.00
2023-05-08T22:55:03.251Z,95.82
2023-05-08T22:57:35.671Z,94.20
2023-05-08T23:00:07.432Z,91.78
2023-05-08T23:02:41.362Z,80.85
2023-05-08T23:05:14.012Z,91.70
2023-05-08T23:07:43.978Z,90.05
2023-05-08T23:10:24.770Z,88.65
2023-05-08T23:12:54.950Z,96.93
2023-05-08T23:15:29.408Z,101.75
2023-05-08T23:17:58.768Z,109.57
2023-05-08T23:20:28.746Z,103.07
2023-05-08T23:23:01.061Z,105.95
2023-05-08T23:25:38.606Z,101.68
2023-05-08T23:28:12.007Z,111.63
2023-05-08T23:30:41.929Z,108.95
2023-05-08T23:33:14.073Z,112.13
2023-05-08T23:35:43.634Z,110.63
2023-05-08T23:38:13.080Z,117.78
2023-05-08T23:40:51.784Z,110.97
2023-05-08T23:43:22.242Z,114.63
2023-05-08T23:45:53.413Z,122.30
2023-05-08T23:48:24.026Z,118.38
2023-05-08T23:50:57.335Z,123.18
2023-05-08T23:53:28.600Z,123.75
2023-05-08T23:56:02.905Z,121.47
2023-05-08T23:58:33.813Z,126.22
